Time;durP1;ratioP1;P1;durP2;ratioP2;P2;SDS_P1;SDS_P2;PMS_P1;PMS_P2;Temp;Humidity;BMP_temperature;BMP_pressure;BME280_temperature;BME280_humidity;BME280_pressure;Samples;Min_cycle;Max_cycle;Signal;HPM_P1;HPM_P2
2022/01/28 00:00:13;;;;;;;14.40;3.67;;;;;;;;;;4980135;28;20190;-63
2022/01/28 00:05:13;;;;;;;9.43;3.50;;;;;;;;;;4972998;28;20313;-63
2022/01/28 00:07:38;;;;;;;8.97;3.57;;;;;;;;;;4973694;28;20186;-63
2022/01/28 00:10:05;;;;;;;18.23;3.90;;;;;;;;;;4973947;28;20824;-63
2022/01/28 00:12:32;;;;;;;11.47;3.00;;;;;;;;;;4972783;28;20578;-63
2022/01/28 00:15:12;;;;;;;13.87;3.60;;;;;;;;;;4975997;28;20197;-63
2022/01/28 00:18:08;;;;;;;16.10;3.53;;;;;;;;;;4979492;28;20252;-63
2022/01/28 00:20:58;;;;;;;12.73;3.73;;;;;;;;;;4995052;28;20229;-63
2022/01/28 00:37:06;;;;;;;14.97;3.37;;;;;;;;;;4979894;28;20271;-62
2022/01/28 00:39:32;;;;;;;13.70;3.13;;;;;;;;;;4977992;28;20193;-63
2022/01/28 00:41:58;;;;;;;13.53;2.83;;;;;;;;;;4978882;28;20262;-63
2022/01/28 00:44:24;;;;;;;10.87;2.90;;;;;;;;;;4977106;28;20197;-63
2022/01/28 00:46:50;;;;;;;13.70;3.37;;;;;;;;;;4981079;28;20630;-62
2022/01/28 00:49:16;;;;;;;15.40;3.60;;;;;;;;;;4983282;28;20738;-63
2022/01/28 00:51:42;;;;;;;16.37;3.20;;;;;;;;;;4982585;28;20594;-63
2022/01/28 00:54:08;;;;;;;14.40;3.20;;;;;;;;;;4977944;28;20202;-63
2022/01/28 00:56:34;;;;;;;13.37;3.30;;;;;;;;;;4976364;28;20218;-63
2022/01/28 00:59:00;;;;;;;14.30;3.17;;;;;;;;;;4976731;28;21841;-63
2022/01/28 01:01:29;;;;;;;13.00;3.23;;;;;;;;;;4980857;28;20572;-63
2022/01/28 01:03:56;;;;;;;15.17;3.40;;;;;;;;;;4978133;28;20197;-65
2022/01/28 01:06:22;;;;;;;18.43;3.40;;;;;;;;;;4980434;28;20732;-63
2022/01/28 01:08:47;;;;;;;14.90;3.17;;;;;;;;;;4964611;28;20198;-63
2022/01/28 01:11:13;;;;;;;11.70;3.43;;;;;;;;;;4991768;28;20569;-63
2022/01/28 01:13:41;;;;;;;10.80;3.07;;;;;;;;;;4955521;28;20834;-63
2022/01/28 01:16:10;;;;;;;10.10;2.80;;;;;;;;;;4975167;28;20245;-63
2022/01/28 01:18:52;;;;;;;16.17;3.40;;;;;;;;;;4975629;28;20686;-64
2022/01/28 01:21:23;;;;;;;12.40;3.23;;;;;;;;;;4959858;28;20267;-63
2022/01/28 01:23:58;;;;;;;11.40;3.23;;;;;;;;;;4977571;28;20197;-63
2022/01/28 01:26:36;;;;;;;12.83;3.17;;;;;;;;;;4981750;28;20209;-63
2022/01/28 01:29:05;;;;;;;11.80;2.60;;;;;;;;;;4961235;28;20464;-63
2022/01/28 01:31:31;;;;;;;18.47;3.47;;;;;;;;;;4983542;28;20185;-63
2022/01/28 01:36:22;;;;;;;11.00;3.57;;;;;;;;;;4980093;28;20229;-63
2022/01/28 01:38:49;;;;;;;10.97;2.93;;;;;;;;;;4976988;28;20371;-63
2022/01/28 01:41:33;;;;;;;12.87;3.10;;;;;;;;;;4984212;28;20305;-63
2022/01/28 01:44:14;;;;;;;13.20;2.80;;;;;;;;;;4979406;28;20206;-63
2022/01/28 01:52:03;;;;;;;13.50;2.90;;;;;;;;;;4981233;28;20300;-63
2022/01/28 01:54:30;;;;;;;16.13;3.90;;;;;;;;;;4965171;28;20331;-65
2022/01/28 01:56:56;;;;;;;12.40;3.07;;;;;;;;;;4975529;28;20218;-63
2022/01/28 01:59:22;;;;;;;15.13;2.90;;;;;;;;;;4980407;28;20431;-64
2022/01/28 02:01:48;;;;;;;21.13;3.00;;;;;;;;;;4980966;28;20200;-64
2022/01/28 02:04:14;;;;;;;10.40;3.17;;;;;;;;;;4979820;28;20197;-64
2022/01/28 02:06:40;;;;;;;11.90;2.97;;;;;;;;;;4982779;28;20591;-64
2022/01/28 02:09:06;;;;;;;13.87;3.40;;;;;;;;;;4983954;28;20194;-63
2022/01/28 02:11:32;;;;;;;8.20;2.70;;;;;;;;;;4986313;28;22013;-63
2022/01/28 02:13:58;;;;;;;13.67;2.87;;;;;;;;;;4977755;28;20197;-64
2022/01/28 02:16:24;;;;;;;9.83;3.37;;;;;;;;;;4979881;28;20540;-63
2022/01/28 02:18:50;;;;;;;13.10;3.00;;;;;;;;;;4976305;28;20208;-63
2022/01/28 02:21:18;;;;;;;16.70;3.60;;;;;;;;;;4977027;28;20353;-63
2022/01/28 02:23:47;;;;;;;16.87;3.27;;;;;;;;;;4950410;28;20195;-64
2022/01/28 02:26:16;;;;;;;12.70;3.13;;;;;;;;;;4976113;28;20632;-64
2022/01/28 02:28:44;;;;;;;9.80;2.80;;;;;;;;;;4974213;28;20197;-64
2022/01/28 02:31:10;;;;;;;9.97;2.60;;;;;;;;;;4981206;28;20198;-63
2022/01/28 02:33:36;;;;;;;13.63;3.37;;;;;;;;;;4956990;28;20564;-64
2022/01/28 02:36:05;;;;;;;9.03;2.70;;;;;;;;;;4991105;28;20761;-63
2022/01/28 02:38:31;;;;;;;18.40;3.47;;;;;;;;;;4985511;28;20197;-63
2022/01/28 02:41:00;;;;;;;11.57;2.97;;;;;;;;;;4975685;28;20194;-63
2022/01/28 02:43:41;;;;;;;16.77;3.97;;;;;;;;;;4960219;28;20541;-64
2022/01/28 02:46:10;;;;;;;13.07;3.10;;;;;;;;;;4975626;28;20304;-65
2022/01/28 02:48:39;;;;;;;13.47;3.20;;;;;;;;;;4957165;28;20243;-63
2022/01/28 02:53:45;;;;;;;16.10;3.70;;;;;;;;;;4977826;28;20213;-63
2022/01/28 02:56:48;;;;;;;12.53;3.60;;;;;;;;;;4974647;28;20565;-63
2022/01/28 02:59:03;;;;;;;12.20;3.40;;;;;;;;;;4958614;28;20243;-63
2022/01/28 03:01:29;;;;;;;11.23;3.20;;;;;;;;;;4958501;28;20186;-63
2022/01/28 03:03:56;;;;;;;11.23;3.23;;;;;;;;;;4978165;28;20239;-62
2022/01/28 03:06:22;;;;;;;13.67;2.90;;;;;;;;;;4961380;28;20275;-63
2022/01/28 03:08:55;;;;;;;9.67;2.57;;;;;;;;;;4972965;28;20753;-63
2022/01/28 03:16:23;;;;;;;10.33;3.03;;;;;;;;;;4975686;28;20213;-62
2022/01/28 03:18:59;;;;;;;14.30;3.73;;;;;;;;;;4962300;28;20186;-64
2022/01/28 03:23:58;;;;;;;11.40;2.90;;;;;;;;;;4992600;28;20749;-64
2022/01/28 03:26:25;;;;;;;10.13;3.10;;;;;;;;;;4979389;28;20263;-64
2022/01/28 03:28:51;;;;;;;13.23;3.30;;;;;;;;;;4952379;28;20264;-63
2022/01/28 03:31:18;;;;;;;11.03;2.73;;;;;;;;;;4977990;28;20496;-63
2022/01/28 03:33:44;;;;;;;12.53;3.30;;;;;;;;;;4959996;28;20320;-64
2022/01/28 03:36:11;;;;;;;12.20;2.97;;;;;;;;;;4977282;28;20217;-64
2022/01/28 03:38:38;;;;;;;13.63;3.10;;;;;;;;;;4977032;28;20201;-64
2022/01/28 03:41:04;;;;;;;13.77;3.10;;;;;;;;;;4978513;28;20656;-64
2022/01/28 03:43:30;;;;;;;11.50;3.00;;;;;;;;;;4978684;28;20233;-64
2022/01/28 03:45:56;;;;;;;13.13;3.13;;;;;;;;;;4983150;28;20284;-63
2022/01/28 03:48:22;;;;;;;16.03;3.50;;;;;;;;;;4981907;28;20205;-64
2022/01/28 03:50:50;;;;;;;16.53;3.10;;;;;;;;;;4981916;28;20477;-63
2022/01/28 03:53:16;;;;;;;14.73;2.90;;;;;;;;;;4980441;28;20232;-63
2022/01/28 03:55:42;;;;;;;11.20;3.20;;;;;;;;;;4969517;28;20231;-63
2022/01/28 03:58:08;;;;;;;14.33;3.33;;;;;;;;;;4984857;28;20278;-63
2022/01/28 04:00:34;;;;;;;18.97;3.20;;;;;;;;;;4979199;28;20205;-64
2022/01/28 04:03:11;;;;;;;15.27;3.23;;;;;;;;;;4990725;28;20722;-63
2022/01/28 04:13:46;;;;;;;13.40;2.80;;;;;;;;;;4979883;28;20224;-63
2022/01/28 04:18:48;;;;;;;13.90;3.43;;;;;;;;;;4976757;28;20201;-63
2022/01/28 04:21:14;;;;;;;11.13;2.90;;;;;;;;;;4983184;28;20603;-63
2022/01/28 04:23:40;;;;;;;12.47;3.43;;;;;;;;;;4981712;28;20197;-64
2022/01/28 04:26:06;;;;;;;8.37;3.00;;;;;;;;;;4982981;28;20520;-63
2022/01/28 04:28:32;;;;;;;13.17;3.17;;;;;;;;;;4981341;28;20206;-64
2022/01/28 04:30:57;;;;;;;11.13;3.27;;;;;;;;;;4981137;28;20198;-65
2022/01/28 04:33:23;;;;;;;14.10;3.27;;;;;;;;;;4970609;28;20224;-63
2022/01/28 04:35:53;;;;;;;13.07;3.07;;;;;;;;;;4978849;28;20206;-63
2022/01/28 04:43:42;;;;;;;9.40;2.70;;;;;;;;;;4975106;28;20206;-63
2022/01/28 04:46:16;;;;;;;9.30;2.70;;;;;;;;;;4980461;28;20844;-64
2022/01/28 04:48:59;;;;;;;8.90;2.67;;;;;;;;;;4980607;28;21303;-64
2022/01/28 04:54:34;;;;;;;13.20;2.80;;;;;;;;;;4981928;28;20225;-64
2022/01/28 04:57:22;;;;;;;12.73;3.13;;;;;;;;;;4979402;28;20272;-63
2022/01/28 05:00:16;;;;;;;12.47;2.73;;;;;;;;;;4978748;28;20224;-64
2022/01/28 05:11:05;;;;;;;17.43;3.77;;;;;;;;;;4976712;28;20201;-64
2022/01/28 05:27:00;;;;;;;15.77;2.97;;;;;;;;;;4973936;28;20640;-63
2022/01/28 05:29:26;;;;;;;13.27;3.13;;;;;;;;;;4975944;28;20226;-63
2022/01/28 05:31:52;;;;;;;11.07;3.00;;;;;;;;;;4967667;28;20758;-65
2022/01/28 05:34:18;;;;;;;15.27;3.20;;;;;;;;;;4974277;28;20201;-62
2022/01/28 05:36:45;;;;;;;12.43;3.40;;;;;;;;;;4962612;28;20308;-63
2022/01/28 05:39:11;;;;;;;14.77;3.27;;;;;;;;;;4974932;28;20238;-63
2022/01/28 05:41:37;;;;;;;11.80;4.03;;;;;;;;;;4950586;28;20647;-63
2022/01/28 05:44:03;;;;;;;11.97;3.37;;;;;;;;;;4976149;28;20697;-62
2022/01/28 05:46:29;;;;;;;10.40;3.87;;;;;;;;;;4975431;28;20211;-62
2022/01/28 05:48:56;;;;;;;9.97;3.10;;;;;;;;;;4972994;28;20378;-62
2022/01/28 05:51:22;;;;;;;9.57;2.63;;;;;;;;;;4979716;28;20268;-63
2022/01/28 05:53:48;;;;;;;20.67;4.03;;;;;;;;;;4968935;28;20635;-63
2022/01/28 05:56:14;;;;;;;9.53;2.90;;;;;;;;;;4977527;28;20217;-62
2022/01/28 05:58:40;;;;;;;15.07;3.40;;;;;;;;;;4976797;28;20358;-62
2022/01/28 06:01:06;;;;;;;18.37;3.83;;;;;;;;;;4972975;28;20193;-62
2022/01/28 06:03:32;;;;;;;12.13;3.90;;;;;;;;;;4961837;28;20666;-63
2022/01/28 06:05:58;;;;;;;13.53;3.83;;;;;;;;;;4947028;28;20198;-63
2022/01/28 06:08:24;;;;;;;11.60;3.23;;;;;;;;;;4968399;28;20201;-64
2022/01/28 06:10:50;;;;;;;15.77;3.67;;;;;;;;;;4945649;28;20198;-68
2022/01/28 06:13:16;;;;;;;15.67;4.13;;;;;;;;;;4973480;28;20256;-66
2022/01/28 06:15:42;;;;;;;17.03;4.23;;;;;;;;;;4981248;28;20200;-65
2022/01/28 06:18:08;;;;;;;16.33;4.20;;;;;;;;;;4969412;28;20562;-65
2022/01/28 06:20:34;;;;;;;19.00;3.97;;;;;;;;;;4977431;28;20217;-69
2022/01/28 06:23:00;;;;;;;17.90;4.50;;;;;;;;;;4973525;28;20692;-63
2022/01/28 06:25:26;;;;;;;17.77;4.00;;;;;;;;;;4974947;28;20204;-63
2022/01/28 06:27:52;;;;;;;18.00;4.20;;;;;;;;;;4977420;28;20197;-63
2022/01/28 06:30:20;;;;;;;16.80;4.00;;;;;;;;;;4972177;28;20728;-62
2022/01/28 06:32:47;;;;;;;16.30;4.17;;;;;;;;;;4968020;28;20193;-62
2022/01/28 06:35:13;;;;;;;15.57;4.00;;;;;;;;;;4970208;28;20198;-62
2022/01/28 06:37:40;;;;;;;22.43;3.93;;;;;;;;;;4972510;28;20220;-62
2022/01/28 06:40:06;;;;;;;14.23;3.87;;;;;;;;;;4953528;28;20285;-62
2022/01/28 06:42:32;;;;;;;16.07;4.43;;;;;;;;;;4969973;28;20224;-62
2022/01/28 06:44:58;;;;;;;12.90;3.87;;;;;;;;;;4966160;28;20197;-62
2022/01/28 06:47:24;;;;;;;13.60;4.80;;;;;;;;;;4963255;28;20288;-62
2022/01/28 06:49:50;;;;;;;18.37;4.70;;;;;;;;;;4965111;28;20205;-61
2022/01/28 06:52:16;;;;;;;20.97;4.33;;;;;;;;;;4967188;28;20197;-61
2022/01/28 06:54:42;;;;;;;13.00;4.07;;;;;;;;;;4966246;28;20189;-61
2022/01/28 06:57:08;;;;;;;16.03;4.00;;;;;;;;;;4969249;28;20221;-62
2022/01/28 06:59:34;;;;;;;17.13;4.27;;;;;;;;;;4962508;28;21562;-61
2022/01/28 07:02:00;;;;;;;15.97;3.70;;;;;;;;;;4961634;28;20931;-61
2022/01/28 07:04:26;;;;;;;21.53;4.33;;;;;;;;;;4959050;28;20214;-63
2022/01/28 07:06:52;;;;;;;18.60;3.80;;;;;;;;;;4963282;28;20444;-62
2022/01/28 07:09:18;;;;;;;8.87;3.43;;;;;;;;;;4957821;28;20203;-63
2022/01/28 07:11:44;;;;;;;11.70;3.53;;;;;;;;;;4942407;28;20285;-63
2022/01/28 07:14:10;;;;;;;12.77;3.63;;;;;;;;;;4943194;28;20737;-62
2022/01/28 07:16:36;;;;;;;10.73;3.43;;;;;;;;;;4980912;28;20229;-61
2022/01/28 07:19:03;;;;;;;11.83;3.60;;;;;;;;;;4969883;28;20221;-62
2022/01/28 07:21:29;;;;;;;10.00;3.73;;;;;;;;;;4975665;28;20233;-62
2022/01/28 07:23:54;;;;;;;15.73;3.63;;;;;;;;;;4966668;28;20193;-63
2022/01/28 07:26:20;;;;;;;9.63;3.60;;;;;;;;;;4970763;28;20260;-64
2022/01/28 07:28:48;;;;;;;16.20;3.50;;;;;;;;;;4968610;28;20206;-63
2022/01/28 07:31:16;;;;;;;12.20;3.63;;;;;;;;;;4966924;28;20248;-61
2022/01/28 07:33:42;;;;;;;19.00;3.33;;;;;;;;;;4971997;28;20467;-63
2022/01/28 07:36:08;;;;;;;16.30;3.40;;;;;;;;;;4975515;28;20578;-61
2022/01/28 07:38:34;;;;;;;15.30;4.20;;;;;;;;;;4974477;28;20217;-61
2022/01/28 07:41:01;;;;;;;12.43;3.83;;;;;;;;;;4976092;28;20273;-63
2022/01/28 07:43:27;;;;;;;13.53;4.37;;;;;;;;;;4964920;28;20778;-62
2022/01/28 07:45:53;;;;;;;14.57;3.20;;;;;;;;;;4971790;28;20596;-62
2022/01/28 07:48:19;;;;;;;9.57;3.73;;;;;;;;;;4973503;28;20593;-62
2022/01/28 07:50:45;;;;;;;13.93;4.03;;;;;;;;;;4964908;28;20228;-62
2022/01/28 07:53:15;;;;;;;10.50;3.60;;;;;;;;;;4972604;28;20277;-62
2022/01/28 07:55:41;;;;;;;12.83;4.17;;;;;;;;;;4967811;28;20307;-61
2022/01/28 07:58:07;;;;;;;14.40;4.43;;;;;;;;;;4965143;28;20244;-62
2022/01/28 08:00:33;;;;;;;11.13;4.60;;;;;;;;;;4969293;28;20300;-61
2022/01/28 08:02:59;;;;;;;11.93;4.03;;;;;;;;;;4975524;28;20193;-62
2022/01/28 08:05:25;;;;;;;13.57;4.43;;;;;;;;;;4969810;28;20197;-61
2022/01/28 08:07:52;;;;;;;8.70;3.80;;;;;;;;;;4966474;28;20212;-62
2022/01/28 08:10:19;;;;;;;16.53;4.47;;;;;;;;;;4970621;28;20230;-62
2022/01/28 08:12:49;;;;;;;18.63;4.90;;;;;;;;;;4962530;28;20198;-63
2022/01/28 08:15:15;;;;;;;19.50;5.07;;;;;;;;;;4967335;28;20380;-62
2022/01/28 08:17:41;;;;;;;15.07;4.87;;;;;;;;;;4947701;28;20363;-62
2022/01/28 08:20:07;;;;;;;14.37;5.07;;;;;;;;;;4971763;28;20198;-62
2022/01/28 08:22:33;;;;;;;14.37;5.10;;;;;;;;;;4968118;28;20240;-63
2022/01/28 08:24:59;;;;;;;12.57;5.10;;;;;;;;;;4964884;28;20221;-63
2022/01/28 08:27:25;;;;;;;13.33;5.40;;;;;;;;;;4970345;28;20202;-63
2022/01/28 08:29:51;;;;;;;12.93;5.33;;;;;;;;;;4965682;28;20240;-63
2022/01/28 08:32:17;;;;;;;17.23;5.20;;;;;;;;;;4970335;28;20469;-62
2022/01/28 08:34:43;;;;;;;15.00;5.33;;;;;;;;;;4968302;28;20202;-63
2022/01/28 08:37:09;;;;;;;18.83;5.90;;;;;;;;;;4969461;28;20224;-63
2022/01/28 08:39:35;;;;;;;16.13;5.43;;;;;;;;;;4964837;28;20289;-63
2022/01/28 08:42:01;;;;;;;11.83;5.00;;;;;;;;;;4967624;28;20194;-63
2022/01/28 08:44:28;;;;;;;16.20;5.97;;;;;;;;;;4976599;28;20209;-63
2022/01/28 08:46:54;;;;;;;16.47;5.50;;;;;;;;;;4984160;28;20194;-63
2022/01/28 08:49:19;;;;;;;17.70;5.60;;;;;;;;;;4991263;28;20669;-61
2022/01/28 08:51:48;;;;;;;17.00;5.43;;;;;;;;;;4979328;28;20200;-63
2022/01/28 08:54:14;;;;;;;17.70;5.50;;;;;;;;;;4965214;28;20842;-62
2022/01/28 08:56:40;;;;;;;14.43;5.20;;;;;;;;;;4968454;28;20297;-62
2022/01/28 08:59:06;;;;;;;12.73;5.33;;;;;;;;;;4966666;28;20201;-62
2022/01/28 09:01:32;;;;;;;10.27;5.37;;;;;;;;;;4965530;28;20201;-63
2022/01/28 09:03:58;;;;;;;12.37;5.17;;;;;;;;;;4956984;28;20197;-61
2022/01/28 09:06:24;;;;;;;11.70;5.20;;;;;;;;;;4956412;28;20304;-61
2022/01/28 09:08:53;;;;;;;12.47;5.43;;;;;;;;;;4959492;28;20297;-62
2022/01/28 09:13:48;;;;;;;13.63;5.90;;;;;;;;;;4966672;28;20742;-61
2022/01/28 09:16:14;;;;;;;15.87;5.77;;;;;;;;;;4967745;28;20228;-61
2022/01/28 09:18:40;;;;;;;13.73;6.30;;;;;;;;;;4964791;28;20191;-61
2022/01/28 09:21:06;;;;;;;12.07;5.90;;;;;;;;;;4971780;28;20248;-61
2022/01/28 09:23:33;;;;;;;14.47;5.63;;;;;;;;;;4971624;28;20201;-61
2022/01/28 09:25:59;;;;;;;11.40;5.10;;;;;;;;;;4970608;28;20609;-62
2022/01/28 09:28:25;;;;;;;14.97;5.83;;;;;;;;;;4971346;28;20293;-62
2022/01/28 09:30:52;;;;;;;16.63;5.80;;;;;;;;;;4968049;28;20226;-62
2022/01/28 09:33:18;;;;;;;15.13;5.37;;;;;;;;;;4963273;28;20189;-62
2022/01/28 09:35:44;;;;;;;21.13;6.03;;;;;;;;;;4976249;28;20197;-61
2022/01/28 09:38:10;;;;;;;14.80;5.60;;;;;;;;;;4970901;28;20217;-62
2022/01/28 09:40:36;;;;;;;11.40;5.17;;;;;;;;;;4978066;28;20887;-62
2022/01/28 09:43:04;;;;;;;17.93;5.87;;;;;;;;;;4953479;28;20295;-62
2022/01/28 09:45:30;;;;;;;13.33;5.00;;;;;;;;;;4979583;28;20773;-63
2022/01/28 09:47:56;;;;;;;13.97;5.87;;;;;;;;;;4939593;28;20198;-61
2022/01/28 09:50:30;;;;;;;15.17;5.60;;;;;;;;;;4967746;28;20194;-62
2022/01/28 09:52:56;;;;;;;11.57;5.07;;;;;;;;;;4967518;28;20292;-62
2022/01/28 09:55:23;;;;;;;13.00;5.03;;;;;;;;;;4966517;28;20665;-62
2022/01/28 09:57:52;;;;;;;15.40;5.70;;;;;;;;;;4975789;28;20223;-62
2022/01/28 10:00:21;;;;;;;10.20;5.20;;;;;;;;;;4976179;28;20194;-63
2022/01/28 10:02:58;;;;;;;19.37;6.13;;;;;;;;;;4975492;28;20217;-62
2022/01/28 10:05:25;;;;;;;11.63;5.17;;;;;;;;;;4971939;28;20197;-63
2022/01/28 10:08:06;;;;;;;15.50;5.23;;;;;;;;;;4967994;28;20942;-61
2022/01/28 10:10:45;;;;;;;13.67;5.00;;;;;;;;;;4937870;28;20193;-62
2022/01/28 10:13:46;;;;;;;16.23;5.53;;;;;;;;;;4968797;28;20740;-62
2022/01/28 10:16:15;;;;;;;11.43;5.37;;;;;;;;;;4960189;28;20330;-62
2022/01/28 10:18:42;;;;;;;13.23;5.27;;;;;;;;;;4967817;28;20695;-63
2022/01/28 10:21:20;;;;;;;15.93;5.63;;;;;;;;;;4966338;28;20365;-62
2022/01/28 10:24:09;;;;;;;15.33;5.60;;;;;;;;;;4965959;28;20263;-63
2022/01/28 10:26:48;;;;;;;13.60;5.00;;;;;;;;;;4961028;28;20208;-62
2022/01/28 10:29:23;;;;;;;13.13;5.20;;;;;;;;;;4973736;28;20272;-63
2022/01/28 10:31:50;;;;;;;9.47;4.90;;;;;;;;;;4978893;28;20201;-63
2022/01/28 10:34:20;;;;;;;14.57;4.93;;;;;;;;;;4982760;28;20713;-63
2022/01/28 10:36:47;;;;;;;16.87;5.03;;;;;;;;;;4948011;28;20221;-63
2022/01/28 10:39:13;;;;;;;15.40;4.97;;;;;;;;;;4973105;28;20611;-63
2022/01/28 10:41:47;;;;;;;10.43;4.50;;;;;;;;;;4959070;28;20194;-63
2022/01/28 10:44:15;;;;;;;9.07;4.07;;;;;;;;;;4952236;28;20205;-62
2022/01/28 10:46:41;;;;;;;14.03;5.40;;;;;;;;;;4959276;28;20574;-62
2022/01/28 10:49:08;;;;;;;10.03;4.70;;;;;;;;;;4967711;28;20198;-62
2022/01/28 10:51:51;;;;;;;10.50;5.17;;;;;;;;;;4961186;28;20209;-62
2022/01/28 10:54:20;;;;;;;10.30;5.00;;;;;;;;;;4958694;28;21869;-63
2022/01/28 10:56:56;;;;;;;11.23;5.53;;;;;;;;;;4961206;28;20252;-63
2022/01/28 10:59:32;;;;;;;15.97;5.20;;;;;;;;;;4960727;28;21590;-62
2022/01/28 11:01:58;;;;;;;10.00;4.00;;;;;;;;;;4963850;28;20198;-63
2022/01/28 11:04:24;;;;;;;11.40;4.43;;;;;;;;;;4961676;28;20193;-63
2022/01/28 11:06:51;;;;;;;10.23;4.40;;;;;;;;;;4948254;28;20198;-62
2022/01/28 11:09:17;;;;;;;15.63;5.27;;;;;;;;;;4949666;28;20224;-63
2022/01/28 11:11:43;;;;;;;11.73;4.50;;;;;;;;;;4980434;28;20548;-63
2022/01/28 11:14:09;;;;;;;14.43;4.60;;;;;;;;;;4971091;28;20224;-63
2022/01/28 11:16:35;;;;;;;13.73;4.40;;;;;;;;;;4948038;28;20476;-64
2022/01/28 11:19:02;;;;;;;10.83;3.77;;;;;;;;;;4944529;28;20758;-68
2022/01/28 11:21:31;;;;;;;12.53;5.00;;;;;;;;;;4948235;28;20786;-64
2022/01/28 11:24:16;;;;;;;12.07;4.33;;;;;;;;;;4967202;28;20737;-63
2022/01/28 11:26:44;;;;;;;11.70;5.03;;;;;;;;;;4962455;28;20232;-62
2022/01/28 11:29:18;;;;;;;13.50;4.97;;;;;;;;;;4963036;28;20694;-66
2022/01/28 11:31:46;;;;;;;13.47;4.83;;;;;;;;;;4955928;28;20212;-60
2022/01/28 11:34:25;;;;;;;14.00;4.87;;;;;;;;;;4965057;28;20268;-62
2022/01/28 11:37:11;;;;;;;13.67;5.43;;;;;;;;;;4949008;28;20221;-61
2022/01/28 11:39:40;;;;;;;10.67;4.53;;;;;;;;;;4959336;28;20202;-61
2022/01/28 11:42:06;;;;;;;14.47;4.90;;;;;;;;;;4949847;28;20292;-61
2022/01/28 11:44:50;;;;;;;13.13;5.00;;;;;;;;;;4965096;28;20280;-61
2022/01/28 11:47:35;;;;;;;10.80;4.80;;;;;;;;;;4967798;28;20255;-60
2022/01/28 11:50:18;;;;;;;9.83;4.43;;;;;;;;;;4965226;28;20873;-61
2022/01/28 11:52:48;;;;;;;14.57;5.27;;;;;;;;;;4962444;28;26154;-62
2022/01/28 11:55:26;;;;;;;11.27;4.77;;;;;;;;;;4956676;28;20598;-61
2022/01/28 11:58:01;;;;;;;13.33;4.63;;;;;;;;;;4968216;28;20229;-61
2022/01/28 12:00:27;;;;;;;8.03;3.77;;;;;;;;;;4956689;28;20374;-61
2022/01/28 12:02:53;;;;;;;10.90;4.13;;;;;;;;;;4965942;28;20587;-60
2022/01/28 12:05:39;;;;;;;11.07;4.07;;;;;;;;;;4963054;28;20893;-61
2022/01/28 12:08:05;;;;;;;9.37;3.70;;;;;;;;;;4928288;28;20206;-62
2022/01/28 12:10:33;;;;;;;12.03;3.90;;;;;;;;;;4956119;28;20637;-61
2022/01/28 12:13:01;;;;;;;9.80;3.60;;;;;;;;;;4964463;28;20546;-62
2022/01/28 12:15:28;;;;;;;8.80;4.07;;;;;;;;;;4961805;28;20213;-61
2022/01/28 12:18:04;;;;;;;7.60;3.20;;;;;;;;;;4967726;28;20221;-61
2022/01/28 12:20:42;;;;;;;7.50;3.30;;;;;;;;;;4968220;28;20796;-61
2022/01/28 12:23:11;;;;;;;5.97;3.00;;;;;;;;;;4968002;28;20605;-62
2022/01/28 12:25:37;;;;;;;7.65;3.67;;;;;;;;;;4968036;28;22400;-61
2022/01/28 12:28:21;;;;;;;8.05;3.67;;;;;;;;;;4965079;28;20198;-62
2022/01/28 12:31:00;;;;;;;7.82;3.40;;;;;;;;;;4966203;28;20563;-61
2022/01/28 12:33:27;;;;;;;8.75;3.35;;;;;;;;;;4951083;28;20242;-62
2022/01/28 12:35:56;;;;;;;8.98;4.55;;;;;;;;;;4972408;28;20205;-61
2022/01/28 12:38:24;;;;;;;11.63;5.90;;;;;;;;;;4947604;28;20213;-62
2022/01/28 12:40:53;;;;;;;11.68;5.38;;;;;;;;;;4968874;28;20210;-61
2022/01/28 12:43:19;;;;;;;9.70;4.43;;;;;;;;;;4968327;28;20197;-62
2022/01/28 12:46:05;;;;;;;10.32;4.47;;;;;;;;;;4962873;28;20195;-60
2022/01/28 12:48:32;;;;;;;9.00;4.03;;;;;;;;;;4965331;28;20977;-61
2022/01/28 12:50:58;;;;;;;7.82;3.65;;;;;;;;;;4965071;28;20197;-61
2022/01/28 12:53:30;;;;;;;11.85;3.90;;;;;;;;;;4966595;28;20225;-61
2022/01/28 12:55:57;;;;;;;7.20;3.17;;;;;;;;;;4967454;28;20247;-61
2022/01/28 12:58:42;;;;;;;7.00;3.27;;;;;;;;;;4965425;28;20224;-61
2022/01/28 13:01:09;;;;;;;11.03;3.50;;;;;;;;;;4963473;28;20662;-61
2022/01/28 13:03:39;;;;;;;8.80;3.47;;;;;;;;;;4957549;28;20285;-61
2022/01/28 13:09:01;;;;;;;9.23;3.50;;;;;;;;;;4935303;28;20206;-61
2022/01/28 13:11:28;;;;;;;11.27;4.07;;;;;;;;;;4946009;28;20193;-61
2022/01/28 13:13:54;;;;;;;10.23;3.50;;;;;;;;;;4961870;28;20607;-61
2022/01/28 13:16:50;;;;;;;10.43;4.37;;;;;;;;;;4958433;28;20280;-61
2022/01/28 13:19:16;;;;;;;11.77;4.40;;;;;;;;;;4947202;28;20216;-60
2022/01/28 13:21:43;;;;;;;10.07;4.77;;;;;;;;;;4966525;28;20368;-62
2022/01/28 13:24:14;;;;;;;11.93;4.37;;;;;;;;;;4966142;28;20659;-61
2022/01/28 13:26:59;;;;;;;10.13;5.40;;;;;;;;;;4969149;28;20709;-61
2022/01/28 13:29:32;;;;;;;14.07;6.97;;;;;;;;;;4958503;28;20212;-61
2022/01/28 13:31:59;;;;;;;16.37;7.90;;;;;;;;;;4963893;28;20292;-61
2022/01/28 13:34:25;;;;;;;16.83;7.37;;;;;;;;;;4959527;28;20197;-62
2022/01/28 13:36:52;;;;;;;12.07;6.67;;;;;;;;;;4968741;28;20221;-62
2022/01/28 13:39:19;;;;;;;9.60;5.43;;;;;;;;;;4935538;28;20194;-61
2022/01/28 13:41:47;;;;;;;9.83;5.03;;;;;;;;;;4957141;28;20201;-60
2022/01/28 13:44:20;;;;;;;13.67;5.13;;;;;;;;;;4962125;28;20187;-62
2022/01/28 13:46:54;;;;;;;8.70;4.43;;;;;;;;;;4961606;28;20210;-62
2022/01/28 13:49:22;;;;;;;10.17;4.87;;;;;;;;;;4964844;28;21767;-61
2022/01/28 13:51:49;;;;;;;15.97;4.97;;;;;;;;;;4955066;28;20221;-62
2022/01/28 13:54:15;;;;;;;10.80;4.27;;;;;;;;;;4960852;28;20212;-62
2022/01/28 13:56:46;;;;;;;13.20;4.73;;;;;;;;;;4933466;28;20280;-61
2022/01/28 13:59:16;;;;;;;8.63;4.13;;;;;;;;;;4957625;28;21245;-62
2022/01/28 14:01:45;;;;;;;10.67;4.00;;;;;;;;;;4942035;28;20639;-62
2022/01/28 14:04:19;;;;;;;10.53;4.17;;;;;;;;;;4946158;28;20407;-60
2022/01/28 14:06:45;;;;;;;8.70;4.33;;;;;;;;;;4946149;28;20193;-61
2022/01/28 14:09:14;;;;;;;11.30;4.47;;;;;;;;;;4958562;28;20201;-62
2022/01/28 14:11:41;;;;;;;8.67;4.03;;;;;;;;;;4957506;28;20205;-62
2022/01/28 14:14:24;;;;;;;8.07;4.40;;;;;;;;;;4963534;28;20679;-61
2022/01/28 14:17:00;;;;;;;14.83;5.90;;;;;;;;;;4966176;28;20210;-61
2022/01/28 14:19:26;;;;;;;11.80;5.17;;;;;;;;;;4968021;28;20193;-61
2022/01/28 14:21:52;;;;;;;10.63;5.27;;;;;;;;;;4964299;28;20270;-61
2022/01/28 14:24:19;;;;;;;13.27;5.80;;;;;;;;;;4945679;28;20202;-61
2022/01/28 14:26:55;;;;;;;10.50;5.23;;;;;;;;;;4971596;28;20741;-61
2022/01/28 14:29:49;;;;;;;13.87;5.37;;;;;;;;;;4966355;28;20300;-61
2022/01/28 14:32:16;;;;;;;12.40;5.97;;;;;;;;;;4976446;28;20201;-61
2022/01/28 14:34:42;;;;;;;12.67;5.10;;;;;;;;;;4959226;28;20579;-60
2022/01/28 14:37:08;;;;;;;14.07;5.50;;;;;;;;;;4959413;28;20607;-61
2022/01/28 14:39:35;;;;;;;8.33;4.80;;;;;;;;;;4964733;28;20201;-61
2022/01/28 14:42:03;;;;;;;13.33;4.50;;;;;;;;;;4958016;28;20197;-61
2022/01/28 14:44:32;;;;;;;12.93;4.97;;;;;;;;;;4964108;28;20190;-61
2022/01/28 14:46:58;;;;;;;13.37;5.20;;;;;;;;;;4980863;28;20250;-62
2022/01/28 14:49:24;;;;;;;10.33;4.10;;;;;;;;;;4979505;28;20202;-61
2022/01/28 14:51:53;;;;;;;12.23;4.10;;;;;;;;;;4970594;28;20244;-62
2022/01/28 14:54:22;;;;;;;9.10;4.33;;;;;;;;;;4966689;28;20276;-62
2022/01/28 14:56:48;;;;;;;11.37;4.60;;;;;;;;;;4951314;28;20221;-62
2022/01/28 14:59:14;;;;;;;10.33;4.43;;;;;;;;;;4962018;28;20202;-61
2022/01/28 15:01:39;;;;;;;12.07;4.30;;;;;;;;;;4959511;28;20332;-62
2022/01/28 15:04:05;;;;;;;12.63;4.60;;;;;;;;;;4976208;28;20193;-61
2022/01/28 15:06:31;;;;;;;10.40;4.17;;;;;;;;;;4976666;28;20632;-61
2022/01/28 15:09:00;;;;;;;10.23;4.07;;;;;;;;;;4975090;28;20205;-61
2022/01/28 15:14:18;;;;;;;12.27;5.00;;;;;;;;;;4970960;28;20217;-61
2022/01/28 15:16:44;;;;;;;14.10;5.07;;;;;;;;;;4965132;28;20309;-61
2022/01/28 15:19:10;;;;;;;10.03;4.67;;;;;;;;;;4963325;28;20204;-61
2022/01/28 15:21:37;;;;;;;15.53;6.77;;;;;;;;;;4967141;28;20237;-62
2022/01/28 15:24:03;;;;;;;11.20;5.33;;;;;;;;;;4969441;28;20248;-64
2022/01/28 15:26:29;;;;;;;11.77;5.40;;;;;;;;;;4973301;28;20209;-66
2022/01/28 15:29:02;;;;;;;10.60;5.67;;;;;;;;;;4971231;28;20197;-64
2022/01/28 15:36:44;;;;;;;19.60;6.93;;;;;;;;;;4974376;28;20217;-65
2022/01/28 15:39:11;;;;;;;17.17;6.63;;;;;;;;;;4976430;28;20588;-63
2022/01/28 15:41:37;;;;;;;15.00;6.93;;;;;;;;;;4972730;28;20707;-63
2022/01/28 15:44:03;;;;;;;14.50;7.30;;;;;;;;;;4972264;28;20286;-63
2022/01/28 15:46:29;;;;;;;13.87;6.53;;;;;;;;;;4976861;28;20197;-63
2022/01/28 15:48:54;;;;;;;15.27;7.40;;;;;;;;;;4976509;28;20232;-64
2022/01/28 15:51:20;;;;;;;18.00;7.33;;;;;;;;;;4976159;28;20217;-63
2022/01/28 15:53:46;;;;;;;20.50;7.60;;;;;;;;;;4981702;28;20840;-64
2022/01/28 15:56:12;;;;;;;20.87;8.33;;;;;;;;;;4970797;28;20193;-63
2022/01/28 15:58:41;;;;;;;16.87;8.03;;;;;;;;;;4954768;28;20193;-63
2022/01/28 16:01:07;;;;;;;19.50;9.60;;;;;;;;;;4980719;28;20224;-62
2022/01/28 16:03:33;;;;;;;19.80;10.17;;;;;;;;;;4973700;28;21819;-62
2022/01/28 16:06:00;;;;;;;23.57;11.40;;;;;;;;;;4974087;28;20220;-63
2022/01/28 16:08:27;;;;;;;18.77;12.23;;;;;;;;;;4974197;28;20813;-63